sensor_id;sensor_type;location;lat;lon;timestamp;pressure;altitude;pressure_sealevel;temperature;humidity
42519;BME280;28147;47.520;18.920;2023-05-23T00:02:03;98190.09;;;21.37;54.63
42519;BME280;28147;47.520;18.920;2023-05-23T00:04:32;98188.81;;;21.21;54.92
42519;BME280;28147;47.520;18.920;2023-05-23T00:07:00;98187.28;;;21.28;54.03
42519;BME280;28147;47.520;18.920;2023-05-23T00:09:25;98187.84;;;21.17;55.22
42519;BME280;28147;47.520;18.920;2023-05-23T00:11:50;98181.00;;;21.19;54.76
42519;BME280;28147;47.520;18.920;2023-05-23T00:14:16;98179.72;;;21.17;54.36
42519;BME280;28147;47.520;18.920;2023-05-23T00:16:42;98188.81;;;21.21;54.91
42519;BME280;28147;47.520;18.920;2023-05-23T00:19:11;98185.03;;;21.22;55.27
42519;BME280;28147;47.520;18.920;2023-05-23T00:21:41;98182.56;;;21.34;54.60
42519;BME280;28147;47.520;18.920;2023-05-23T00:24:08;98181.69;;;21.02;55.74
42519;BME280;28147;47.520;18.920;2023-05-23T00:26:35;98187.84;;;21.17;55.26
42519;BME280;28147;47.520;18.920;2023-05-23T00:29:00;98185.75;;;21.13;54.79
42519;BME280;28147;47.520;18.920;2023-05-23T00:31:26;98189.28;;;21.14;55.11
42519;BME280;28147;47.520;18.920;2023-05-23T00:33:51;98183.84;;;21.14;55.26
42519;BME280;28147;47.520;18.920;2023-05-23T00:36:17;98179.53;;;20.90;55.52
42519;BME280;28147;47.520;18.920;2023-05-23T00:38:43;98179.44;;;21.18;55.01
42519;BME280;28147;47.520;18.920;2023-05-23T00:41:10;98182.97;;;21.05;55.54
42519;BME280;28147;47.520;18.920;2023-05-23T00:43:36;98193.50;;;21.06;54.99
42519;BME280;28147;47.520;18.920;2023-05-23T00:46:01;98190.31;;;21.04;55.58
42519;BME280;28147;47.520;18.920;2023-05-23T00:48:27;98186.47;;;20.83;56.19
42519;BME280;28147;47.520;18.920;2023-05-23T00:50:54;98185.25;;;20.89;55.72
42519;BME280;28147;47.520;18.920;2023-05-23T00:53:20;98180.34;;;20.91;55.58
42519;BME280;28147;47.520;18.920;2023-05-23T00:55:46;98187.09;;;21.02;55.37
42519;BME280;28147;47.520;18.920;2023-05-23T00:58:12;98185.31;;;20.98;55.70
42519;BME280;28147;47.520;18.920;2023-05-23T01:00:40;98184.56;;;20.83;55.86
42519;BME280;28147;47.520;18.920;2023-05-23T01:03:05;98186.06;;;20.76;56.53
42519;BME280;28147;47.520;18.920;2023-05-23T01:05:30;98186.94;;;20.99;55.86
42519;BME280;28147;47.520;18.920;2023-05-23T01:07:56;98188.38;;;20.82;56.60
42519;BME280;28147;47.520;18.920;2023-05-23T01:10:26;98187.31;;;20.70;56.98
42519;BME280;28147;47.520;18.920;2023-05-23T01:16:04;98176.56;;;20.78;56.64
42519;BME280;28147;47.520;18.920;2023-05-23T01:21:17;98178.22;;;20.65;57.22
42519;BME280;28147;47.520;18.920;2023-05-23T01:26:39;98174.31;;;20.58;57.40
42519;BME280;28147;47.520;18.920;2023-05-23T01:29:12;98178.78;;;20.76;56.79
42519;BME280;28147;47.520;18.920;2023-05-23T01:31:42;98169.97;;;20.71;57.10
42519;BME280;28147;47.520;18.920;2023-05-23T01:34:11;98173.72;;;20.61;57.24
42519;BME280;28147;47.520;18.920;2023-05-23T01:36:41;98178.47;;;20.78;56.70
42519;BME280;28147;47.520;18.920;2023-05-23T01:39:07;98174.41;;;20.67;56.98
42519;BME280;28147;47.520;18.920;2023-05-23T01:41:32;98164.91;;;20.55;57.03
42519;BME280;28147;47.520;18.920;2023-05-23T01:43:58;98165.59;;;20.47;57.15
42519;BME280;28147;47.520;18.920;2023-05-23T01:46:24;98165.91;;;20.46;57.95
42519;BME280;28147;47.520;18.920;2023-05-23T01:48:52;98166.81;;;20.41;57.85
42519;BME280;28147;47.520;18.920;2023-05-23T01:51:20;98164.91;;;20.55;57.17
42519;BME280;28147;47.520;18.920;2023-05-23T01:53:45;98162.47;;;20.68;56.49
42519;BME280;28147;47.520;18.920;2023-05-23T01:56:12;98156.56;;;20.65;56.67
42519;BME280;28147;47.520;18.920;2023-05-23T01:58:37;98158.13;;;20.80;55.84
42519;BME280;28147;47.520;18.920;2023-05-23T02:01:03;98152.88;;;20.61;56.68
42519;BME280;28147;47.520;18.920;2023-05-23T02:03:28;98150.91;;;20.53;57.11
42519;BME280;28147;47.520;18.920;2023-05-23T02:05:54;98154.47;;;20.49;57.87
42519;BME280;28147;47.520;18.920;2023-05-23T02:08:20;98143.47;;;20.45;57.33
42519;BME280;28147;47.520;18.920;2023-05-23T02:10:45;98147.69;;;20.51;57.61
42519;BME280;28147;47.520;18.920;2023-05-23T02:13:11;98149.66;;;20.59;57.52
42519;BME280;28147;47.520;18.920;2023-05-23T02:15:36;98142.91;;;20.71;56.81
42519;BME280;28147;47.520;18.920;2023-05-23T02:18:01;98146.47;;;20.57;56.90
42519;BME280;28147;47.520;18.920;2023-05-23T02:20:28;98142.13;;;20.70;56.44
42519;BME280;28147;47.520;18.920;2023-05-23T02:22:53;98132.78;;;20.54;56.83
42519;BME280;28147;47.520;18.920;2023-05-23T02:25:19;98144.13;;;20.64;56.88
42519;BME280;28147;47.520;18.920;2023-05-23T02:27:44;98137.66;;;20.38;57.73
42519;BME280;28147;47.520;18.920;2023-05-23T02:30:10;98136.97;;;20.32;57.83
42519;BME280;28147;47.520;18.920;2023-05-23T02:32:35;98135.38;;;20.31;57.87
42519;BME280;28147;47.520;18.920;2023-05-23T02:35:02;98139.38;;;20.34;58.06
42519;BME280;28147;47.520;18.920;2023-05-23T02:37:27;98142.59;;;20.36;58.09
42519;BME280;28147;47.520;18.920;2023-05-23T02:39:53;98141.25;;;20.47;57.62
42519;BME280;28147;47.520;18.920;2023-05-23T02:42:18;98132.97;;;20.44;57.84
42519;BME280;28147;47.520;18.920;2023-05-23T02:44:43;98143.97;;;20.33;57.97
42519;BME280;28147;47.520;18.920;2023-05-23T02:47:09;98140.38;;;20.38;57.90
42519;BME280;28147;47.520;18.920;2023-05-23T02:49:35;98136.00;;;20.14;58.65
42519;BME280;28147;47.520;18.920;2023-05-23T02:52:00;98142.19;;;20.29;58.19
42519;BME280;28147;47.520;18.920;2023-05-23T02:54:25;98138.81;;;20.23;58.69
42519;BME280;28147;47.520;18.920;2023-05-23T02:56:51;98133.69;;;20.22;58.42
42519;BME280;28147;47.520;18.920;2023-05-23T02:59:18;98138.81;;;20.23;58.49
42519;BME280;28147;47.520;18.920;2023-05-23T03:01:44;98132.56;;;20.36;57.80
42519;BME280;28147;47.520;18.920;2023-05-23T03:04:09;98127.56;;;20.30;57.53
42519;BME280;28147;47.520;18.920;2023-05-23T03:06:35;98130.66;;;20.37;57.49
42519;BME280;28147;47.520;18.920;2023-05-23T03:09:01;98130.38;;;20.38;57.57
42519;BME280;28147;47.520;18.920;2023-05-23T03:11:26;98132.69;;;20.31;58.24
42519;BME280;28147;47.520;18.920;2023-05-23T03:13:54;98137.66;;;20.38;57.80
42519;BME280;28147;47.520;18.920;2023-05-23T03:16:19;98138.97;;;20.40;57.21
42519;BME280;28147;47.520;18.920;2023-05-23T03:18:46;98142.78;;;20.39;57.38
42519;BME280;28147;47.520;18.920;2023-05-23T03:21:11;98140.59;;;20.28;58.17
42519;BME280;28147;47.520;18.920;2023-05-23T03:23:36;98140.88;;;20.26;58.24
42519;BME280;28147;47.520;18.920;2023-05-23T03:26:02;98141.38;;;20.42;57.85
42519;BME280;28147;47.520;18.920;2023-05-23T03:28:29;98141.25;;;20.47;57.99
42519;BME280;28147;47.520;18.920;2023-05-23T03:30:55;98135.47;;;20.54;57.56
42519;BME280;28147;47.520;18.920;2023-05-23T03:33:20;98133.84;;;20.53;57.26
42519;BME280;28147;47.520;18.920;2023-05-23T03:35:46;98132.56;;;20.50;57.20
42519;BME280;28147;47.520;18.920;2023-05-23T03:38:13;98134.06;;;20.42;57.56
42519;BME280;28147;47.520;18.920;2023-05-23T03:40:38;98137.25;;;20.45;58.10
42519;BME280;28147;47.520;18.920;2023-05-23T03:43:05;98133.81;;;20.67;57.03
42519;BME280;28147;47.520;18.920;2023-05-23T03:45:31;98133.47;;;20.46;58.19
42519;BME280;28147;47.520;18.920;2023-05-23T03:47:57;98132.63;;;20.45;58.19
42519;BME280;28147;47.520;18.920;2023-05-23T03:50:23;98128.69;;;20.29;59.05
42519;BME280;28147;47.520;18.920;2023-05-23T03:52:48;98126.84;;;20.38;58.84
42519;BME280;28147;47.520;18.920;2023-05-23T03:55:14;98132.25;;;20.52;58.45
42519;BME280;28147;47.520;18.920;2023-05-23T03:57:39;98125.84;;;20.84;57.40
42519;BME280;28147;47.520;18.920;2023-05-23T04:00:05;98129.72;;;20.92;56.60
42519;BME280;28147;47.520;18.920;2023-05-23T04:02:36;98131.50;;;20.74;57.23
42519;BME280;28147;47.520;18.920;2023-05-23T04:05:01;98132.66;;;20.81;58.00
42519;BME280;28147;47.520;18.920;2023-05-23T04:07:27;98143.34;;;20.86;58.09
42519;BME280;28147;47.520;18.920;2023-05-23T04:09:52;98136.91;;;21.19;57.58
42519;BME280;28147;47.520;18.920;2023-05-23T04:12:18;98138.34;;;21.25;57.40
42519;BME280;28147;47.520;18.920;2023-05-23T04:14:45;98138.84;;;21.27;57.61
42519;BME280;28147;47.520;18.920;2023-05-23T04:17:11;98132.53;;;21.62;56.42
42519;BME280;28147;47.520;18.920;2023-05-23T04:19:37;98130.97;;;21.70;56.46
42519;BME280;28147;47.520;18.920;2023-05-23T04:22:03;98141.19;;;21.73;56.60
42519;BME280;28147;47.520;18.920;2023-05-23T04:24:28;98131.47;;;22.21;55.52
42519;BME280;28147;47.520;18.920;2023-05-23T04:26:53;98134.69;;;22.49;55.04
42519;BME280;28147;47.520;18.920;2023-05-23T04:29:20;98132.44;;;22.33;55.29
42519;BME280;28147;47.520;18.920;2023-05-23T04:31:46;98131.03;;;22.36;55.66
42519;BME280;28147;47.520;18.920;2023-05-23T04:34:11;98129.13;;;22.63;55.26
42519;BME280;28147;47.520;18.920;2023-05-23T04:36:37;98133.25;;;22.69;54.92
42519;BME280;28147;47.520;18.920;2023-05-23T04:39:04;98134.88;;;22.78;54.81
42519;BME280;28147;47.520;18.920;2023-05-23T04:41:29;98136.63;;;22.92;54.16
42519;BME280;28147;47.520;18.920;2023-05-23T04:43:55;98139.66;;;22.90;54.74
42519;BME280;28147;47.520;18.920;2023-05-23T04:46:22;98137.28;;;23.15;54.24
42519;BME280;28147;47.520;18.920;2023-05-23T04:48:51;98134.16;;;23.42;53.74
42519;BME280;28147;47.520;18.920;2023-05-23T04:51:17;98131.69;;;23.67;53.57
42519;BME280;28147;47.520;18.920;2023-05-23T04:53:42;98135.50;;;23.74;53.33
42519;BME280;28147;47.520;18.920;2023-05-23T04:56:09;98134.78;;;23.95;52.52
42519;BME280;28147;47.520;18.920;2023-05-23T04:58:34;98133.78;;;24.29;51.75
42519;BME280;28147;47.520;18.920;2023-05-23T05:00:59;98123.72;;;24.50;51.50
42519;BME280;28147;47.520;18.920;2023-05-23T05:03:25;98113.78;;;24.75;51.53
42519;BME280;28147;47.520;18.920;2023-05-23T05:05:51;98118.25;;;25.13;51.04
42519;BME280;28147;47.520;18.920;2023-05-23T05:08:17;98122.50;;;25.35;50.98
42519;BME280;28147;47.520;18.920;2023-05-23T05:10:44;98121.53;;;24.86;51.27
42519;BME280;28147;47.520;18.920;2023-05-23T05:13:09;98123.91;;;25.08;51.54
42519;BME280;28147;47.520;18.920;2023-05-23T05:15:35;98120.22;;;25.25;51.24
42519;BME280;28147;47.520;18.920;2023-05-23T05:18:00;98130.22;;;25.33;50.74
42519;BME280;28147;47.520;18.920;2023-05-23T05:20:26;98124.59;;;25.63;50.23
42519;BME280;28147;47.520;18.920;2023-05-23T05:23:00;98121.88;;;25.51;50.85
42519;BME280;28147;47.520;18.920;2023-05-23T05:25:26;98127.94;;;25.81;49.35
42519;BME280;28147;47.520;18.920;2023-05-23T05:27:56;98131.69;;;25.88;50.54
42519;BME280;28147;47.520;18.920;2023-05-23T05:30:22;98136.13;;;25.81;48.98
42519;BME280;28147;47.520;18.920;2023-05-23T05:32:48;98132.22;;;25.57;45.73
42519;BME280;28147;47.520;18.920;2023-05-23T05:35:13;98133.09;;;25.49;44.56
42519;BME280;28147;47.520;18.920;2023-05-23T05:37:39;98135.25;;;25.56;43.90
42519;BME280;28147;47.520;18.920;2023-05-23T05:40:05;98134.03;;;25.65;44.12
42519;BME280;28147;47.520;18.920;2023-05-23T05:42:32;98130.13;;;25.42;43.82
42519;BME280;28147;47.520;18.920;2023-05-23T05:44:58;98133.66;;;25.42;43.53
42519;BME280;28147;47.520;18.920;2023-05-23T05:47:23;98135.44;;;25.05;42.77
42519;BME280;28147;47.520;18.920;2023-05-23T05:49:49;98132.31;;;25.61;42.78
42519;BME280;28147;47.520;18.920;2023-05-23T05:52:14;98133.41;;;25.23;43.16
42519;BME280;28147;47.520;18.920;2023-05-23T05:54:40;98132.28;;;25.36;43.49
42519;BME280;28147;47.520;18.920;2023-05-23T05:57:05;98131.22;;;25.99;43.31
42519;BME280;28147;47.520;18.920;2023-05-23T05:59:30;98131.22;;;26.76;42.58
42519;BME280;28147;47.520;18.920;2023-05-23T06:01:56;98118.13;;;25.55;43.05
42519;BME280;28147;47.520;18.920;2023-05-23T06:04:21;98128.13;;;25.76;43.71
42519;BME280;28147;47.520;18.920;2023-05-23T06:06:47;98125.81;;;26.63;41.82
42519;BME280;28147;47.520;18.920;2023-05-23T06:09:12;98127.13;;;26.17;42.12
42519;BME280;28147;47.520;18.920;2023-05-23T06:11:37;98130.28;;;25.70;41.66
42519;BME280;28147;47.520;18.920;2023-05-23T06:14:08;98135.75;;;26.56;41.61
42519;BME280;28147;47.520;18.920;2023-05-23T06:16:33;98123.97;;;26.96;41.64
42519;BME280;28147;47.520;18.920;2023-05-23T06:18:59;98131.44;;;27.39;41.43
42519;BME280;28147;47.520;18.920;2023-05-23T06:21:25;98142.22;;;26.51;41.60
42519;BME280;28147;47.520;18.920;2023-05-23T06:23:50;98136.69;;;27.04;42.40
42519;BME280;28147;47.520;18.920;2023-05-23T06:26:16;98139.38;;;26.35;41.08
42519;BME280;28147;47.520;18.920;2023-05-23T06:28:42;98131.72;;;26.65;41.79
42519;BME280;28147;47.520;18.920;2023-05-23T06:31:07;98129.50;;;26.83;41.29
42519;BME280;28147;47.520;18.920;2023-05-23T06:33:36;98134.50;;;26.41;41.24
42519;BME280;28147;47.520;18.920;2023-05-23T06:36:01;98131.69;;;27.06;41.98
42519;BME280;28147;47.520;18.920;2023-05-23T06:38:29;98135.38;;;26.45;41.08
42519;BME280;28147;47.520;18.920;2023-05-23T06:40:55;98124.94;;;26.87;40.88
42519;BME280;28147;47.520;18.920;2023-05-23T06:43:20;98126.91;;;27.31;40.26
42519;BME280;28147;47.520;18.920;2023-05-23T06:45:46;98133.00;;;27.40;40.69
42519;BME280;28147;47.520;18.920;2023-05-23T06:48:12;98124.88;;;28.07;39.56
42519;BME280;28147;47.520;18.920;2023-05-23T06:50:37;98125.38;;;28.28;38.86
42519;BME280;28147;47.520;18.920;2023-05-23T06:53:03;98120.06;;;28.00;39.26
42519;BME280;28147;47.520;18.920;2023-05-23T06:55:28;98120.03;;;28.16;39.16
42519;BME280;28147;47.520;18.920;2023-05-23T06:57:54;98122.16;;;28.07;38.75
42519;BME280;28147;47.520;18.920;2023-05-23T07:00:20;98123.06;;;28.11;39.03
42519;BME280;28147;47.520;18.920;2023-05-23T07:02:46;98117.41;;;27.88;38.42
42519;BME280;28147;47.520;18.920;2023-05-23T07:05:15;98119.94;;;27.65;37.96
42519;BME280;28147;47.520;18.920;2023-05-23T07:07:41;98113.88;;;27.56;37.92
42519;BME280;28147;47.520;18.920;2023-05-23T07:10:07;98112.53;;;28.13;38.34
42519;BME280;28147;47.520;18.920;2023-05-23T07:12:33;98118.66;;;27.91;38.55
42519;BME280;28147;47.520;18.920;2023-05-23T07:14:58;98118.56;;;27.39;39.39
42519;BME280;28147;47.520;18.920;2023-05-23T07:17:24;98113.13;;;28.22;40.12
42519;BME280;28147;47.520;18.920;2023-05-23T07:19:49;98108.50;;;27.44;40.11
42519;BME280;28147;47.520;18.920;2023-05-23T07:22:15;98109.28;;;27.28;41.49
42519;BME280;28147;47.520;18.920;2023-05-23T07:24:40;98105.50;;;27.96;41.32
42519;BME280;28147;47.520;18.920;2023-05-23T07:27:06;98110.59;;;28.13;40.07
42519;BME280;28147;47.520;18.920;2023-05-23T07:29:31;98110.47;;;29.00;40.93
42519;BME280;28147;47.520;18.920;2023-05-23T07:31:57;98110.28;;;28.34;40.32
42519;BME280;28147;47.520;18.920;2023-05-23T07:34:23;98099.06;;;27.88;40.54
42519;BME280;28147;47.520;18.920;2023-05-23T07:36:49;98118.16;;;28.20;41.60
42519;BME280;28147;47.520;18.920;2023-05-23T07:39:14;98120.72;;;28.83;41.83
42519;BME280;28147;47.520;18.920;2023-05-23T07:41:46;98109.47;;;29.08;40.26
42519;BME280;28147;47.520;18.920;2023-05-23T07:44:11;98116.66;;;28.58;39.29
42519;BME280;28147;47.520;18.920;2023-05-23T07:46:36;98109.91;;;28.91;41.01
42519;BME280;28147;47.520;18.920;2023-05-23T07:49:02;98106.66;;;28.85;40.51
42519;BME280;28147;47.520;18.920;2023-05-23T07:51:27;98107.50;;;28.15;42.17
42519;BME280;28147;47.520;18.920;2023-05-23T07:53:52;98101.38;;;29.15;40.92
42519;BME280;28147;47.520;18.920;2023-05-23T07:56:18;98113.19;;;28.42;40.22
42519;BME280;28147;47.520;18.920;2023-05-23T07:58:43;98106.16;;;28.99;39.74
42519;BME280;28147;47.520;18.920;2023-05-23T08:01:09;98102.41;;;29.30;39.18
42519;BME280;28147;47.520;18.920;2023-05-23T08:03:34;98106.63;;;28.11;39.66
42519;BME280;28147;47.520;18.920;2023-05-23T08:05:59;98101.38;;;28.96;39.13
42519;BME280;28147;47.520;18.920;2023-05-23T08:08:25;98107.75;;;29.00;39.30
42519;BME280;28147;47.520;18.920;2023-05-23T08:10:50;98111.41;;;27.98;39.91
42519;BME280;28147;47.520;18.920;2023-05-23T08:13:15;98110.25;;;27.36;41.68
42519;BME280;28147;47.520;18.920;2023-05-23T08:15:42;98111.19;;;28.39;39.29
42519;BME280;28147;47.520;18.920;2023-05-23T08:18:07;98103.84;;;29.01;39.23
42519;BME280;28147;47.520;18.920;2023-05-23T08:20:33;98108.00;;;28.56;40.00
42519;BME280;28147;47.520;18.920;2023-05-23T08:23:02;98105.19;;;28.17;39.63
42519;BME280;28147;47.520;18.920;2023-05-23T08:25:28;98097.31;;;28.90;38.78
42519;BME280;28147;47.520;18.920;2023-05-23T08:27:57;98101.56;;;29.49;36.93
42519;BME280;28147;47.520;18.920;2023-05-23T08:30:23;98107.72;;;30.41;37.34
42519;BME280;28147;47.520;18.920;2023-05-23T08:32:53;98109.38;;;29.47;36.38
42519;BME280;28147;47.520;18.920;2023-05-23T08:35:20;98103.34;;;30.67;36.62
42519;BME280;28147;47.520;18.920;2023-05-23T08:37:46;98107.97;;;30.29;38.12
42519;BME280;28147;47.520;18.920;2023-05-23T08:40:21;98099.69;;;29.76;36.39
42519;BME280;28147;47.520;18.920;2023-05-23T08:42:49;98108.44;;;30.08;37.63
42519;BME280;28147;47.520;18.920;2023-05-23T08:45:15;98105.72;;;29.39;36.35
42519;BME280;28147;47.520;18.920;2023-05-23T08:47:42;98106.78;;;30.30;36.36
42519;BME280;28147;47.520;18.920;2023-05-23T08:50:13;98111.84;;;29.75;35.94
42519;BME280;28147;47.520;18.920;2023-05-23T08:52:55;98099.66;;;30.25;36.69
42519;BME280;28147;47.520;18.920;2023-05-23T08:55:23;98106.63;;;29.70;36.21
42519;BME280;28147;47.520;18.920;2023-05-23T08:57:52;98118.03;;;30.48;36.95
42519;BME280;28147;47.520;18.920;2023-05-23T09:00:18;98119.75;;;30.60;35.61
42519;BME280;28147;47.520;18.920;2023-05-23T09:02:45;98111.47;;;29.76;36.71
42519;BME280;28147;47.520;18.920;2023-05-23T09:05:11;98112.13;;;29.04;38.10
42519;BME280;28147;47.520;18.920;2023-05-23T09:07:38;98116.88;;;29.50;37.33
42519;BME280;28147;47.520;18.920;2023-05-23T09:10:05;98106.31;;;29.98;36.25
42519;BME280;28147;47.520;18.920;2023-05-23T09:12:32;98112.03;;;30.39;36.97
42519;BME280;28147;47.520;18.920;2023-05-23T09:14:58;98110.53;;;29.92;36.87
42519;BME280;28147;47.520;18.920;2023-05-23T09:17:24;98109.88;;;28.52;38.86
42519;BME280;28147;47.520;18.920;2023-05-23T09:19:49;98108.38;;;28.54;39.66
42519;BME280;28147;47.520;18.920;2023-05-23T09:22:16;98110.03;;;28.59;39.78
42519;BME280;28147;47.520;18.920;2023-05-23T09:24:49;98110.72;;;29.56;37.87
42519;BME280;28147;47.520;18.920;2023-05-23T09:27:16;98104.63;;;31.07;37.54
42519;BME280;28147;47.520;18.920;2023-05-23T09:29:41;98097.84;;;30.10;36.75
42519;BME280;28147;47.520;18.920;2023-05-23T09:32:18;98105.19;;;29.76;36.48
42519;BME280;28147;47.520;18.920;2023-05-23T09:34:58;98112.28;;;30.60;36.18
42519;BME280;28147;47.520;18.920;2023-05-23T09:37:35;98101.44;;;30.41;36.23
42519;BME280;28147;47.520;18.920;2023-05-23T09:40:06;98117.94;;;29.65;36.33
42519;BME280;28147;47.520;18.920;2023-05-23T09:42:34;98109.50;;;30.57;35.56
42519;BME280;28147;47.520;18.920;2023-05-23T09:45:01;98106.72;;;30.00;35.74
42519;BME280;28147;47.520;18.920;2023-05-23T09:47:26;98106.34;;;30.85;34.27
42519;BME280;28147;47.520;18.920;2023-05-23T09:49:52;98099.91;;;31.07;32.96
42519;BME280;28147;47.520;18.920;2023-05-23T09:52:17;98103.03;;;31.06;33.41
42519;BME280;28147;47.520;18.920;2023-05-23T09:54:45;98106.94;;;30.41;34.95
42519;BME280;28147;47.520;18.920;2023-05-23T09:57:13;98102.91;;;30.65;35.10
42519;BME280;28147;47.520;18.920;2023-05-23T09:59:40;98110.53;;;30.75;34.78
42519;BME280;28147;47.520;18.920;2023-05-23T10:02:07;98103.00;;;30.72;34.13
42519;BME280;28147;47.520;18.920;2023-05-23T10:04:36;98106.31;;;32.07;33.85
42519;BME280;28147;47.520;18.920;2023-05-23T10:07:12;98110.31;;;32.13;32.09
42519;BME280;28147;47.520;18.920;2023-05-23T10:09:41;98095.72;;;30.53;35.16
42519;BME280;28147;47.520;18.920;2023-05-23T10:14:57;98106.88;;;31.79;33.19
42519;BME280;28147;47.520;18.920;2023-05-23T10:17:38;98095.31;;;32.07;31.53
42519;BME280;28147;47.520;18.920;2023-05-23T10:20:14;98090.84;;;32.58;32.06
42519;BME280;28147;47.520;18.920;2023-05-23T10:22:41;98090.84;;;32.47;29.17
42519;BME280;28147;47.520;18.920;2023-05-23T10:25:07;98082.06;;;32.34;30.16
42519;BME280;28147;47.520;18.920;2023-05-23T10:27:38;98091.16;;;30.98;32.85
42519;BME280;28147;47.520;18.920;2023-05-23T10:30:04;98083.22;;;30.89;32.58
42519;BME280;28147;47.520;18.920;2023-05-23T10:32:31;98096.13;;;31.60;32.24
42519;BME280;28147;47.520;18.920;2023-05-23T10:36:07;98089.84;;;30.85;34.35
42519;BME280;28147;47.520;18.920;2023-05-23T10:38:06;98083.50;;;31.14;32.75
42519;BME280;28147;47.520;18.920;2023-05-23T10:44:01;98089.03;;;29.48;35.07
42519;BME280;28147;47.520;18.920;2023-05-23T10:46:49;98086.75;;;29.07;36.88
42519;BME280;28147;47.520;18.920;2023-05-23T10:49:16;98084.91;;;30.67;36.76
42519;BME280;28147;47.520;18.920;2023-05-23T10:51:42;98077.75;;;30.93;33.87
42519;BME280;28147;47.520;18.920;2023-05-23T10:54:10;98072.94;;;30.22;35.12
42519;BME280;28147;47.520;18.920;2023-05-23T10:56:36;98071.91;;;30.08;34.51
42519;BME280;28147;47.520;18.920;2023-05-23T10:59:04;98062.94;;;30.11;34.34
42519;BME280;28147;47.520;18.920;2023-05-23T11:01:30;98058.47;;;29.49;35.84
42519;BME280;28147;47.520;18.920;2023-05-23T11:03:56;98066.44;;;29.81;36.17
42519;BME280;28147;47.520;18.920;2023-05-23T11:06:41;98061.19;;;30.86;34.53
42519;BME280;28147;47.520;18.920;2023-05-23T11:09:11;98051.78;;;30.87;32.57
42519;BME280;28147;47.520;18.920;2023-05-23T11:12:03;98051.28;;;31.15;33.76
42519;BME280;28147;47.520;18.920;2023-05-23T11:19:36;98060.53;;;30.32;36.38
42519;BME280;28147;47.520;18.920;2023-05-23T11:22:02;98051.50;;;30.05;35.05
42519;BME280;28147;47.520;18.920;2023-05-23T11:24:53;98050.25;;;30.25;34.81
42519;BME280;28147;47.520;18.920;2023-05-23T11:27:32;98035.66;;;30.85;35.01
42519;BME280;28147;47.520;18.920;2023-05-23T11:30:05;98049.28;;;30.44;36.79
42519;BME280;28147;47.520;18.920;2023-05-23T11:32:31;98044.69;;;30.52;35.86
42519;BME280;28147;47.520;18.920;2023-05-23T11:35:01;98039.88;;;29.89;38.07
42519;BME280;28147;47.520;18.920;2023-05-23T11:37:27;98032.88;;;30.82;34.56
42519;BME280;28147;47.520;18.920;2023-05-23T11:39:53;98030.38;;;29.56;36.02
42519;BME280;28147;47.520;18.920;2023-05-23T11:42:19;98024.81;;;30.66;35.17
42519;BME280;28147;47.520;18.920;2023-05-23T11:44:48;98024.53;;;29.34;35.08
42519;BME280;28147;47.520;18.920;2023-05-23T11:47:13;98021.41;;;30.12;34.44
42519;BME280;28147;47.520;18.920;2023-05-23T11:49:39;98010.88;;;28.92;34.79
42519;BME280;28147;47.520;18.920;2023-05-23T11:52:05;98011.22;;;30.13;34.52
42519;BME280;28147;47.520;18.920;2023-05-23T11:54:31;98006.72;;;30.27;32.54
42519;BME280;28147;47.520;18.920;2023-05-23T11:56:57;97996.34;;;30.47;33.30
42519;BME280;28147;47.520;18.920;2023-05-23T11:59:25;97998.38;;;29.90;34.76
42519;BME280;28147;47.520;18.920;2023-05-23T12:01:51;97991.41;;;30.00;34.66
42519;BME280;28147;47.520;18.920;2023-05-23T12:04:17;97996.16;;;30.29;34.43
42519;BME280;28147;47.520;18.920;2023-05-23T12:06:45;97984.38;;;30.29;35.35
42519;BME280;28147;47.520;18.920;2023-05-23T12:09:11;97992.00;;;30.76;33.77
42519;BME280;28147;47.520;18.920;2023-05-23T12:11:38;97987.59;;;30.38;35.18
42519;BME280;28147;47.520;18.920;2023-05-23T12:14:05;97983.88;;;28.94;35.07
42519;BME280;28147;47.520;18.920;2023-05-23T12:16:33;97974.38;;;29.34;35.50
42519;BME280;28147;47.520;18.920;2023-05-23T12:19:00;97981.16;;;29.93;33.96
42519;BME280;28147;47.520;18.920;2023-05-23T12:21:39;97973.81;;;31.09;33.22
42519;BME280;28147;47.520;18.920;2023-05-23T12:24:15;97972.47;;;29.61;34.81
42519;BME280;28147;47.520;18.920;2023-05-23T12:26:57;97979.03;;;29.30;34.35
42519;BME280;28147;47.520;18.920;2023-05-23T12:29:32;97962.91;;;29.02;35.60
42519;BME280;28147;47.520;18.920;2023-05-23T12:32:00;97956.81;;;29.39;35.68
42519;BME280;28147;47.520;18.920;2023-05-23T12:34:25;97963.66;;;30.05;34.31
42519;BME280;28147;47.520;18.920;2023-05-23T12:36:56;97954.47;;;30.58;35.63
42519;BME280;28147;47.520;18.920;2023-05-23T12:39:25;97953.16;;;30.44;34.94
42519;BME280;28147;47.520;18.920;2023-05-23T12:41:52;97958.72;;;30.51;36.27
42519;BME280;28147;47.520;18.920;2023-05-23T12:44:17;97950.34;;;30.74;35.27
42519;BME280;28147;47.520;18.920;2023-05-23T12:46:42;97959.69;;;30.33;36.73
42519;BME280;28147;47.520;18.920;2023-05-23T12:49:08;97951.47;;;30.33;34.56
42519;BME280;28147;47.520;18.920;2023-05-23T12:51:33;97944.16;;;29.30;36.23
42519;BME280;28147;47.520;18.920;2023-05-23T12:54:00;97946.91;;;29.57;35.37
42519;BME280;28147;47.520;18.920;2023-05-23T12:56:25;97929.53;;;30.36;35.04
42519;BME280;28147;47.520;18.920;2023-05-23T12:58:51;97926.53;;;29.85;34.00
42519;BME280;28147;47.520;18.920;2023-05-23T13:01:18;97935.50;;;30.45;35.02
42519;BME280;28147;47.520;18.920;2023-05-23T13:03:44;97928.81;;;30.80;35.28
42519;BME280;28147;47.520;18.920;2023-05-23T13:06:09;97930.00;;;30.83;34.81
42519;BME280;28147;47.520;18.920;2023-05-23T13:08:35;97923.88;;;30.22;32.62
42519;BME280;28147;47.520;18.920;2023-05-23T13:11:01;97925.69;;;29.80;33.05